Time;durP1;ratioP1;P1;durP2;ratioP2;P2;SDS_P1;SDS_P2;PMS_P1;PMS_P2;Temp;Humidity;BMP_temperature;BMP_pressure;BME280_temperature;BME280_humidity;BME280_pressure;Samples;Min_cycle;Max_cycle;Signal;HPM_P1;HPM_P2
2023/01/16 00:00:04;;;;;;;4.95;2.50;;;4.10;99.90;;;;;;5070181;28;20113;-46
2023/01/16 00:02:30;;;;;;;11.52;3.25;;;3.90;99.90;;;;;;5070008;28;20032;-47
2023/01/16 00:04:56;;;;;;;7.55;2.80;;;4.30;99.90;;;;;;5069798;28;20055;-47
2023/01/16 00:07:21;;;;;;;8.02;2.95;;;3.80;99.90;;;;;;5070210;28;20442;-46
2023/01/16 00:09:47;;;;;;;8.07;3.00;;;4.10;99.90;;;;;;5069981;28;20040;-52
2023/01/16 00:12:13;;;;;;;5.80;2.83;;;3.90;99.90;;;;;;5070297;28;20028;-47
2023/01/16 00:14:38;;;;;;;10.25;2.83;;;4.10;99.90;;;;;;5070327;28;20036;-49
2023/01/16 00:17:04;;;;;;;6.22;2.45;;;4.10;99.90;;;;;;5068710;28;20552;-50
2023/01/16 00:19:30;;;;;;;8.93;3.22;;;4.00;99.90;;;;;;5067640;28;20032;-47
2023/01/16 00:21:55;;;;;;;7.47;2.65;;;4.20;99.90;;;;;;5070240;28;20484;-50
2023/01/16 00:24:21;;;;;;;7.13;2.75;;;4.30;99.90;;;;;;5069917;28;20391;-45
2023/01/16 00:26:50;;;;;;;14.00;3.00;;;4.20;99.90;;;;;;5070093;28;20089;-48
2023/01/16 00:29:16;;;;;;;8.43;2.80;;;4.20;99.90;;;;;;5069508;28;20040;-46
2023/01/16 00:31:42;;;;;;;13.23;3.28;;;4.60;99.90;;;;;;5076257;28;20043;-46
2023/01/16 00:34:08;;;;;;;9.75;2.80;;;4.20;99.90;;;;;;5076608;28;20360;-48
2023/01/16 00:36:33;;;;;;;8.65;2.70;;;4.00;99.90;;;;;;5076570;28;20037;-49
2023/01/16 00:38:59;;;;;;;8.93;2.80;;;4.00;99.90;;;;;;5074898;28;20072;-47
2023/01/16 00:41:25;;;;;;;11.70;2.50;;;4.30;99.90;;;;;;5075440;28;20036;-48
2023/01/16 00:43:51;;;;;;;9.13;2.97;;;4.30;99.90;;;;;;5077851;28;20036;-48
2023/01/16 00:46:17;;;;;;;6.78;2.33;;;4.20;99.90;;;;;;5076666;28;20037;-49
2023/01/16 00:48:43;;;;;;;8.65;3.05;;;4.00;99.90;;;;;;5088870;28;20044;-48
2023/01/16 00:51:09;;;;;;;6.75;2.75;;;4.20;99.90;;;;;;5076699;28;20040;-51
2023/01/16 00:53:34;;;;;;;11.25;2.88;;;4.00;99.90;;;;;;5076452;28;20059;-50
2023/01/16 00:56:00;;;;;;;9.38;3.00;;;4.10;99.90;;;;;;5076709;28;20123;-46
2023/01/16 00:58:26;;;;;;;12.75;3.08;;;4.20;99.90;;;;;;5074268;28;20488;-45
2023/01/16 01:00:52;;;;;;;9.13;2.88;;;4.40;99.90;;;;;;5083497;28;20071;-48
2023/01/16 01:03:17;;;;;;;7.60;2.42;;;4.20;99.90;;;;;;5077905;28;20075;-49
2023/01/16 01:05:43;;;;;;;9.18;2.55;;;4.30;99.90;;;;;;5076439;28;20460;-47
2023/01/16 01:08:09;;;;;;;10.40;2.42;;;4.30;99.90;;;;;;5076408;28;20029;-48
2023/01/16 01:10:37;;;;;;;7.60;2.35;;;4.30;99.90;;;;;;5076226;28;20033;-48
2023/01/16 01:13:03;;;;;;;12.52;2.53;;;4.20;99.90;;;;;;5084600;28;20036;-48
2023/01/16 01:15:29;;;;;;;8.50;2.60;;;4.30;99.90;;;;;;5075935;28;20498;-47
2023/01/16 01:17:54;;;;;;;11.25;2.95;;;4.40;99.90;;;;;;5074534;28;20040;-48
2023/01/16 01:20:20;;;;;;;10.05;2.55;;;4.50;99.90;;;;;;5077092;28;20044;-47
2023/01/16 01:22:46;;;;;;;6.88;2.47;;;4.10;99.90;;;;;;5077763;28;20048;-48
2023/01/16 01:25:12;;;;;;;6.82;2.25;;;4.30;99.90;;;;;;5075797;28;20071;-46
2023/01/16 01:27:38;;;;;;;7.72;2.15;;;4.40;99.90;;;;;;5075845;28;20039;-49
2023/01/16 01:30:04;;;;;;;8.32;2.42;;;4.40;99.90;;;;;;5076034;28;20032;-47
2023/01/16 01:32:30;;;;;;;9.32;2.47;;;4.20;99.90;;;;;;5080677;28;20032;-49
2023/01/16 01:34:55;;;;;;;7.78;2.70;;;4.20;99.90;;;;;;5076289;28;20044;-46
2023/01/16 01:37:21;;;;;;;9.68;2.60;;;4.10;99.90;;;;;;5076153;28;20047;-47
2023/01/16 01:39:47;;;;;;;6.80;2.60;;;4.10;99.90;;;;;;5076038;28;20037;-48
2023/01/16 01:45:16;;;;;;;8.48;2.20;;;4.40;99.90;;;;;;5072172;28;20060;-47
2023/01/16 01:48:12;;;;;;;7.38;2.47;;;4.30;99.90;;;;;;5071899;28;20041;-47
2023/01/16 01:50:52;;;;;;;9.50;2.45;;;4.40;99.90;;;;;;5079060;28;20059;-46
2023/01/16 01:53:33;;;;;;;10.70;2.85;;;4.30;99.90;;;;;;5079556;28;20494;-48
2023/01/16 01:56:06;;;;;;;7.97;2.25;;;4.10;99.90;;;;;;5072447;28;20133;-50
2023/01/16 01:58:33;;;;;;;10.52;2.42;;;4.20;99.90;;;;;;5077517;28;20165;-46
2023/01/16 02:01:00;;;;;;;7.78;2.28;;;4.30;99.90;;;;;;5080254;28;20052;-50
2023/01/16 02:03:42;;;;;;;8.18;2.75;;;4.30;99.90;;;;;;5071025;28;20046;-47
2023/01/16 02:06:17;;;;;;;11.88;2.72;;;4.20;99.90;;;;;;5071029;28;20037;-47
2023/01/16 02:08:44;;;;;;;8.02;2.45;;;4.20;99.90;;;;;;5072206;28;20143;-47
2023/01/16 02:11:35;;;;;;;7.88;3.28;;;4.00;99.90;;;;;;5072260;28;20411;-46
2023/01/16 02:14:06;;;;;;;9.35;3.17;;;4.00;99.90;;;;;;5072077;28;20484;-47
2023/01/16 02:19:46;;;;;;;9.23;3.03;;;4.30;99.90;;;;;;5070970;28;20072;-49
2023/01/16 02:22:50;;;;;;;8.75;3.10;;;3.80;99.90;;;;;;5084334;28;20040;-48
2023/01/16 02:25:25;;;;;;;9.75;3.67;;;4.10;99.90;;;;;;5060585;28;20056;-47
2023/01/16 02:28:22;;;;;;;8.55;3.50;;;3.90;99.90;;;;;;5071779;28;20082;-48
2023/01/16 02:31:06;;;;;;;6.75;3.53;;;3.80;99.90;;;;;;5060699;28;20055;-46
2023/01/16 02:33:56;;;;;;;6.90;3.13;;;3.80;99.90;;;;;;5072102;28;20043;-49
2023/01/16 02:36:44;;;;;;;10.10;3.85;;;3.80;99.90;;;;;;5074989;28;20554;-47
2023/01/16 02:39:34;;;;;;;10.13;4.07;;;3.90;99.90;;;;;;5069618;28;20117;-51
2023/01/16 02:42:38;;;;;;;10.18;4.10;;;4.20;99.90;;;;;;5071223;28;20048;-48
2023/01/16 02:45:39;;;;;;;8.45;3.92;;;3.90;99.90;;;;;;5066426;28;20071;-49
2023/01/16 02:48:47;;;;;;;11.70;4.68;;;3.90;99.90;;;;;;5063501;28;20103;-48
2023/01/16 02:51:28;;;;;;;9.40;4.38;;;3.90;99.90;;;;;;5064447;28;20051;-49
2023/01/16 02:54:18;;;;;;;15.77;4.50;;;4.10;99.90;;;;;;5070564;28;20044;-49
2023/01/16 02:56:48;;;;;;;13.32;5.07;;;3.90;99.90;;;;;;5071342;28;20072;-50
2023/01/16 02:59:16;;;;;;;13.25;5.07;;;4.20;99.90;;;;;;5072088;28;20036;-48
2023/01/16 03:01:45;;;;;;;14.68;5.63;;;4.00;99.90;;;;;;5071932;28;20041;-48
2023/01/16 03:04:36;;;;;;;12.07;5.53;;;4.80;99.90;;;;;;5071317;28;20044;-47
2023/01/16 03:07:26;;;;;;;10.07;5.60;;;4.10;99.90;;;;;;5070437;28;20051;-50
2023/01/16 03:10:13;;;;;;;10.48;5.38;;;4.40;99.90;;;;;;5071122;28;20468;-49
2023/01/16 03:13:09;;;;;;;9.25;5.63;;;4.10;99.90;;;;;;5071165;28;20090;-49
2023/01/16 03:15:56;;;;;;;11.40;5.82;;;4.30;99.90;;;;;;5070401;28;20098;-46
2023/01/16 03:18:34;;;;;;;9.77;5.47;;;4.30;99.90;;;;;;5091511;28;20040;-48
2023/01/16 03:21:21;;;;;;;12.23;6.25;;;4.40;99.90;;;;;;5075711;28;20503;-49
2023/01/16 03:23:53;;;;;;;16.95;7.15;;;4.30;99.90;;;;;;5070743;28;20127;-50
2023/01/16 03:26:36;;;;;;;16.98;7.18;;;4.40;99.90;;;;;;5071027;28;20082;-49
2023/01/16 03:29:26;;;;;;;15.10;7.80;;;4.30;99.90;;;;;;5071013;28;20454;-46
2023/01/16 03:32:17;;;;;;;17.20;7.93;;;4.40;99.90;;;;;;5071610;28;20037;-49
2023/01/16 03:34:48;;;;;;;16.27;8.05;;;4.20;99.90;;;;;;5067873;28;20064;-47
2023/01/16 03:37:21;;;;;;;21.70;8.88;;;4.10;99.90;;;;;;5075690;28;20042;-49
2023/01/16 03:39:55;;;;;;;18.23;9.20;;;4.10;99.90;;;;;;5070391;28;20036;-52
2023/01/16 03:42:31;;;;;;;17.23;8.63;;;4.10;99.90;;;;;;5081358;28;20087;-50
2023/01/16 03:45:12;;;;;;;18.73;9.48;;;4.10;99.90;;;;;;5071300;28;20507;-47
2023/01/16 03:47:50;;;;;;;19.15;10.20;;;4.30;99.90;;;;;;5070139;28;20060;-47
2023/01/16 03:50:20;;;;;;;18.58;10.35;;;4.90;99.90;;;;;;5081292;28;20507;-49
2023/01/16 03:52:51;;;;;;;18.60;10.85;;;4.30;99.90;;;;;;5070762;28;20526;-47
2023/01/16 03:55:28;;;;;;;21.48;10.80;;;4.30;99.90;;;;;;5070580;28;20037;-47
2023/01/16 03:58:09;;;;;;;20.92;10.38;;;4.40;99.90;;;;;;5070692;28;20119;-47
2023/01/16 04:01:00;;;;;;;16.65;10.18;;;4.20;99.90;;;;;;5070862;28;20039;-49
2023/01/16 04:03:33;;;;;;;24.17;10.85;;;4.50;99.90;;;;;;5070686;28;20044;-49
2023/01/16 04:06:13;;;;;;;19.48;11.45;;;4.20;99.90;;;;;;5070421;28;20067;-50
2023/01/16 04:08:41;;;;;;;22.73;12.07;;;4.50;99.90;;;;;;5069478;28;20119;-48
2023/01/16 04:11:08;;;;;;;21.23;12.50;;;4.40;99.90;;;;;;5070440;28;20041;-47
2023/01/16 04:13:37;;;;;;;25.90;13.15;;;4.20;99.90;;;;;;5074154;28;20036;-46
2023/01/16 04:16:10;;;;;;;23.75;12.77;;;4.30;99.90;;;;;;5078046;28;20040;-48
2023/01/16 04:18:36;;;;;;;25.50;12.05;;;4.20;99.90;;;;;;5067340;28;20047;-46
2023/01/16 04:21:07;;;;;;;21.27;12.70;;;4.20;99.90;;;;;;5069974;28;20064;-51
2023/01/16 04:23:33;;;;;;;24.80;13.30;;;4.30;99.90;;;;;;5068870;28;20044;-48
2023/01/16 04:25:59;;;;;;;29.52;15.02;;;4.40;99.90;;;;;;5069827;28;20480;-47
2023/01/16 04:28:25;;;;;;;28.13;14.13;;;4.50;99.90;;;;;;5069902;28;20032;-52
2023/01/16 04:30:50;;;;;;;27.58;13.88;;;4.50;99.90;;;;;;5069746;28;20036;-47
2023/01/16 04:33:16;;;;;;;27.70;13.90;;;4.40;99.90;;;;;;5068879;28;20033;-47
2023/01/16 04:35:42;;;;;;;23.05;14.00;;;4.30;99.90;;;;;;5081079;28;20044;-48
2023/01/16 04:38:07;;;;;;;24.95;14.05;;;4.40;99.90;;;;;;5070373;28;20036;-47
2023/01/16 04:40:33;;;;;;;25.80;13.48;;;4.10;99.90;;;;;;5070117;28;20047;-47
2023/01/16 04:42:59;;;;;;;22.70;12.13;;;3.90;99.90;;;;;;5081586;28;20039;-49
2023/01/16 04:45:24;;;;;;;21.80;12.25;;;4.10;99.90;;;;;;5069984;28;20052;-48
2023/01/16 04:47:51;;;;;;;23.25;13.02;;;3.80;99.90;;;;;;5069321;28;20135;-50
2023/01/16 04:50:18;;;;;;;22.80;12.38;;;3.80;99.90;;;;;;5069798;28;20048;-52
2023/01/16 04:52:44;;;;;;;24.75;11.60;;;3.60;99.90;;;;;;5070067;28;20120;-51
2023/01/16 04:55:11;;;;;;;20.98;10.95;;;3.90;99.90;;;;;;5068250;28;20036;-50
2023/01/16 04:57:37;;;;;;;17.42;9.80;;;3.60;99.90;;;;;;5068465;28;20040;-51
2023/01/16 05:00:07;;;;;;;22.55;10.40;;;3.60;99.90;;;;;;5069622;28;20086;-46
2023/01/16 05:02:33;;;;;;;22.70;10.30;;;3.40;99.90;;;;;;5070012;28;20071;-51
2023/01/16 05:04:59;;;;;;;18.90;9.82;;;3.40;99.90;;;;;;5068654;28;20079;-50
2023/01/16 05:07:27;;;;;;;20.80;10.30;;;3.50;99.90;;;;;;5069830;28;20048;-51
2023/01/16 05:09:53;;;;;;;14.40;8.95;;;3.40;99.90;;;;;;5069663;28;20036;-47
2023/01/16 05:12:19;;;;;;;16.92;9.23;;;3.60;99.90;;;;;;5078210;28;20032;-48
2023/01/16 05:14:45;;;;;;;17.77;8.10;;;3.70;99.90;;;;;;5069574;28;20399;-47
2023/01/16 05:17:10;;;;;;;18.30;8.02;;;3.40;99.90;;;;;;5069591;28;20025;-48
2023/01/16 05:19:36;;;;;;;18.20;7.65;;;3.40;99.90;;;;;;5070803;28;20066;-47
2023/01/16 05:22:02;;;;;;;17.30;7.35;;;3.40;99.90;;;;;;5073223;28;20045;-49
2023/01/16 05:24:27;;;;;;;13.77;6.78;;;3.50;99.90;;;;;;5073242;28;20033;-47
2023/01/16 05:26:53;;;;;;;11.43;7.10;;;3.60;99.90;;;;;;5073637;28;20037;-48
2023/01/16 05:29:19;;;;;;;17.58;7.40;;;3.70;99.90;;;;;;5072886;28;20193;-49
2023/01/16 05:31:44;;;;;;;13.52;6.60;;;3.70;99.90;;;;;;5086326;28;20036;-50
2023/01/16 05:34:10;;;;;;;11.98;6.32;;;3.30;99.90;;;;;;5073654;28;20044;-49
2023/01/16 05:36:36;;;;;;;18.75;6.38;;;3.60;99.90;;;;;;5072825;28;20134;-48
2023/01/16 05:39:02;;;;;;;16.73;5.95;;;3.40;99.90;;;;;;5073019;28;20048;-51
2023/01/16 05:41:28;;;;;;;17.13;6.13;;;3.40;99.90;;;;;;5071364;28;20068;-48
2023/01/16 05:43:53;;;;;;;13.80;5.97;;;3.40;99.90;;;;;;5073196;28;20075;-47
2023/01/16 05:46:19;;;;;;;12.98;5.47;;;3.30;99.90;;;;;;5072960;28;20544;-47
2023/01/16 05:48:45;;;;;;;11.07;5.10;;;3.30;99.90;;;;;;5072101;28;20370;-46
2023/01/16 05:51:11;;;;;;;15.60;5.47;;;3.50;99.90;;;;;;5072565;28;20047;-48
2023/01/16 05:53:37;;;;;;;14.60;5.90;;;3.90;99.90;;;;;;5072760;28;20041;-48
2023/01/16 05:56:10;;;;;;;17.52;5.97;;;3.30;99.90;;;;;;5072685;28;20040;-48
2023/01/16 05:58:36;;;;;;;14.97;6.07;;;3.40;99.90;;;;;;5071126;28;20044;-50
2023/01/16 06:01:02;;;;;;;16.58;5.75;;;3.50;99.90;;;;;;5083321;28;20074;-47
2023/01/16 06:03:31;;;;;;;21.17;6.80;;;3.50;99.90;;;;;;5072779;28;20067;-46
2023/01/16 06:05:58;;;;;;;12.57;5.43;;;3.30;99.90;;;;;;5083808;28;20032;-47
2023/01/16 06:08:25;;;;;;;15.57;5.55;;;3.40;99.90;;;;;;5072469;28;20075;-46
2023/01/16 06:10:50;;;;;;;15.57;5.75;;;3.20;99.90;;;;;;5071120;28;20392;-46
2023/01/16 06:13:16;;;;;;;19.13;5.75;;;3.20;99.90;;;;;;5072655;28;20043;-46
2023/01/16 06:15:42;;;;;;;13.25;5.10;;;3.10;99.90;;;;;;5083725;28;20044;-51
2023/01/16 06:18:08;;;;;;;14.27;5.05;;;3.10;99.90;;;;;;5071738;28;20115;-47
2023/01/16 06:20:33;;;;;;;12.30;5.00;;;3.20;99.90;;;;;;5072099;28;20119;-51
2023/01/16 06:22:59;;;;;;;12.00;5.10;;;3.10;99.90;;;;;;5076282;28;20110;-47
2023/01/16 06:25:25;;;;;;;15.05;4.60;;;3.20;99.90;;;;;;5072509;28;20353;-46
2023/01/16 06:27:51;;;;;;;18.42;4.57;;;3.20;99.90;;;;;;5072845;28;20040;-47
2023/01/16 06:30:17;;;;;;;14.07;4.60;;;3.20;99.90;;;;;;5072133;28;20389;-48
2023/01/16 06:32:44;;;;;;;10.38;3.67;;;3.40;99.90;;;;;;5071725;28;20534;-50
2023/01/16 06:35:10;;;;;;;11.02;3.70;;;3.50;99.90;;;;;;5070537;28;20032;-49
2023/01/16 06:37:35;;;;;;;11.98;4.03;;;3.50;99.90;;;;;;5066833;28;20101;-48
2023/01/16 06:40:01;;;;;;;12.45;3.95;;;3.40;99.90;;;;;;5072123;28;20044;-50
2023/01/16 06:42:27;;;;;;;9.38;3.70;;;3.50;99.90;;;;;;5071187;28;20036;-47
2023/01/16 06:44:53;;;;;;;11.77;4.05;;;3.10;99.90;;;;;;5071035;28;20063;-50
2023/01/16 06:47:19;;;;;;;11.10;3.63;;;3.60;99.90;;;;;;5071731;28;20028;-47
2023/01/16 06:49:44;;;;;;;13.23;4.30;;;3.50;99.90;;;;;;5070864;28;20051;-47
2023/01/16 06:52:10;;;;;;;12.27;3.83;;;3.50;99.90;;;;;;5071830;28;20040;-47
2023/01/16 06:54:36;;;;;;;10.65;3.38;;;3.10;99.90;;;;;;5071579;28;20491;-48
2023/01/16 06:57:01;;;;;;;15.82;3.78;;;3.40;99.90;;;;;;5071808;28;20040;-47
2023/01/16 06:59:27;;;;;;;8.98;3.72;;;3.20;99.90;;;;;;5072311;28;20067;-49
2023/01/16 07:01:53;;;;;;;11.43;3.75;;;3.50;99.90;;;;;;5070298;28;20040;-48
2023/01/16 07:04:18;;;;;;;13.85;3.70;;;3.50;99.90;;;;;;5069706;28;20055;-47
2023/01/16 07:06:44;;;;;;;15.43;3.97;;;3.30;99.90;;;;;;5069974;28;20036;-46
2023/01/16 07:09:10;;;;;;;11.10;3.70;;;3.20;99.90;;;;;;5071255;28;20123;-48
2023/01/16 07:11:36;;;;;;;13.77;4.18;;;3.10;99.90;;;;;;5069659;28;20041;-46
2023/01/16 07:22:38;;;;;;;8.90;3.13;;;3.50;99.90;;;;;;5069781;28;20075;-48
2023/01/16 07:25:08;;;;;;;8.02;2.83;;;3.30;99.90;;;;;;5070991;28;20036;-47
2023/01/16 07:27:34;;;;;;;11.30;3.45;;;3.50;99.90;;;;;;5070792;28;20041;-47
2023/01/16 07:29:59;;;;;;;14.80;3.60;;;3.30;99.90;;;;;;5070575;28;20468;-50
2023/01/16 07:32:25;;;;;;;9.90;3.28;;;3.70;99.90;;;;;;5090465;28;20078;-46
2023/01/16 07:34:51;;;;;;;10.07;3.90;;;3.60;99.90;;;;;;5073475;28;20029;-48
2023/01/16 07:37:16;;;;;;;12.80;3.75;;;3.70;99.90;;;;;;5071006;28;20044;-50
2023/01/16 07:39:42;;;;;;;11.43;4.25;;;3.70;99.90;;;;;;5069378;28;20097;-49
2023/01/16 07:42:08;;;;;;;9.93;3.72;;;3.50;99.90;;;;;;5071916;28;20468;-49
2023/01/16 07:44:34;;;;;;;10.30;3.95;;;3.50;99.90;;;;;;5069729;28;20041;-46
2023/01/16 07:47:00;;;;;;;10.48;4.30;;;3.80;99.90;;;;;;5070563;28;20371;-51
2023/01/16 07:49:25;;;;;;;7.78;3.95;;;4.00;99.90;;;;;;5069489;28;20088;-49
2023/01/16 07:51:51;;;;;;;9.95;4.43;;;3.80;99.90;;;;;;5078471;28;20054;-50
2023/01/16 07:54:17;;;;;;;12.23;4.63;;;3.70;99.90;;;;;;5070740;28;20036;-47
2023/01/16 07:56:42;;;;;;;12.60;4.57;;;3.90;99.90;;;;;;5067998;28;20056;-47
2023/01/16 07:59:08;;;;;;;12.02;4.50;;;4.10;99.90;;;;;;5052600;28;20036;-46
2023/01/16 08:01:34;;;;;;;11.02;4.72;;;3.60;99.90;;;;;;5049582;28;20379;-51
2023/01/16 08:04:00;;;;;;;11.98;4.32;;;3.90;99.90;;;;;;5051389;28;20044;-47
2023/01/16 08:06:26;;;;;;;15.23;4.72;;;3.70;99.90;;;;;;5051512;28;20047;-48
2023/01/16 08:08:51;;;;;;;8.10;4.28;;;3.70;99.90;;;;;;5049531;28;20370;-49
2023/01/16 08:11:35;;;;;;;10.95;4.40;;;4.00;99.90;;;;;;5051351;28;20497;-49
2023/01/16 08:14:02;;;;;;;8.33;4.80;;;3.90;99.90;;;;;;5047898;28;20473;-48
2023/01/16 08:16:28;;;;;;;11.43;4.85;;;3.70;99.90;;;;;;5050864;28;20665;-45
2023/01/16 08:18:54;;;;;;;10.48;4.82;;;4.00;99.90;;;;;;5051268;28;20105;-48
2023/01/16 08:21:20;;;;;;;10.20;4.53;;;4.00;99.90;;;;;;5053083;28;20047;-47
2023/01/16 08:23:46;;;;;;;11.02;5.00;;;3.90;99.90;;;;;;5059779;28;20043;-48
2023/01/16 08:26:12;;;;;;;12.05;4.55;;;3.90;99.90;;;;;;5059848;28;20557;-49
2023/01/16 08:28:39;;;;;;;9.52;5.38;;;4.00;99.90;;;;;;5057486;28;20040;-48
2023/01/16 08:31:08;;;;;;;13.45;5.60;;;3.70;99.90;;;;;;5058627;28;20043;-49
2023/01/16 08:33:38;;;;;;;15.07;5.70;;;3.90;99.90;;;;;;5060181;28;20119;-50
2023/01/16 08:36:06;;;;;;;12.27;5.30;;;3.90;99.90;;;;;;5059129;28;20029;-50
2023/01/16 08:38:32;;;;;;;14.30;5.65;;;3.90;99.90;;;;;;5061655;28;20033;-48
2023/01/16 08:40:58;;;;;;;14.07;5.03;;;3.90;99.90;;;;;;5061601;28;20037;-49
2023/01/16 08:51:58;;;;;;;8.93;4.60;;;3.90;99.90;;;;;;5057717;28;20033;-47
2023/01/16 08:54:24;;;;;;;11.00;4.97;;;4.40;99.90;;;;;;5062705;28;20391;-51
2023/01/16 08:56:50;;;;;;;12.38;5.03;;;4.30;99.90;;;;;;5064344;28;20033;-48
2023/01/16 08:59:16;;;;;;;12.82;4.68;;;3.70;99.90;;;;;;5061694;28;20051;-48
2023/01/16 09:01:42;;;;;;;12.63;4.95;;;4.00;99.90;;;;;;5063984;28;20098;-46
2023/01/16 09:04:09;;;;;;;10.80;5.28;;;3.90;99.90;;;;;;5061664;28;20086;-48
2023/01/16 09:06:37;;;;;;;13.30;5.80;;;3.90;99.90;;;;;;5064222;28;20040;-50
2023/01/16 09:09:07;;;;;;;10.38;5.10;;;3.70;99.90;;;;;;5064474;28;20119;-50
2023/01/16 09:14:18;;;;;;;9.45;4.82;;;3.70;99.90;;;;;;5062731;28;20040;-50
2023/01/16 09:16:44;;;;;;;8.05;4.28;;;4.00;99.90;;;;;;5063276;28;20033;-50
2023/01/16 09:19:10;;;;;;;7.57;3.90;;;3.80;99.90;;;;;;5059869;28;20036;-46
2023/01/16 09:21:35;;;;;;;5.88;3.65;;;3.90;99.90;;;;;;5064001;28;20047;-47
2023/01/16 09:24:02;;;;;;;8.23;3.78;;;4.10;99.90;;;;;;5062248;28;20036;-47
2023/01/16 09:26:29;;;;;;;8.88;3.55;;;4.10;99.90;;;;;;5062213;28;20051;-50
2023/01/16 09:28:54;;;;;;;8.57;3.35;;;3.90;99.90;;;;;;5062329;28;20044;-48
2023/01/16 09:31:20;;;;;;;8.13;3.30;;;4.10;99.90;;;;;;5063079;28;20051;-51
2023/01/16 09:33:51;;;;;;;7.72;3.45;;;3.90;99.90;;;;;;5062584;28;20031;-48
2023/01/16 09:36:16;;;;;;;9.18;3.25;;;4.00;99.90;;;;;;5061696;28;20044;-47
2023/01/16 09:38:42;;;;;;;6.15;2.83;;;3.80;99.90;;;;;;5063381;28;20033;-51
2023/01/16 09:43:35;;;;;;;7.18;2.70;;;3.80;99.90;;;;;;5062452;28;20044;-50
2023/01/16 09:44:00;;;;;;;12.10;3.28;;;3.70;99.90;;;;;;5060574;28;20077;-51
2023/01/16 09:46:30;;;;;;;12.25;2.90;;;3.90;99.90;;;;;;5061262;28;20029;-46
2023/01/16 09:49:08;;;;;;;6.25;2.55;;;3.80;99.90;;;;;;5060752;28;20630;-48
2023/01/16 09:51:41;;;;;;;9.80;2.97;;;3.80;99.90;;;;;;5059796;28;20488;-49
2023/01/16 09:59:47;;;;;;;8.18;2.25;;;4.10;99.90;;;;;;5062370;28;20138;-48
2023/01/16 10:02:20;;;;;;;5.20;1.80;;;3.70;99.90;;;;;;5061297;28;20032;-47
2023/01/16 10:04:47;;;;;;;5.40;2.20;;;3.70;99.90;;;;;;5061167;28;20035;-48
2023/01/16 10:07:44;;;;;;;4.20;2.00;;;4.00;99.90;;;;;;5062016;28;20271;-47
2023/01/16 10:10:29;;;;;;;3.83;2.05;;;3.60;99.90;;;;;;5062099;28;20054;-48
2023/01/16 10:13:26;;;;;;;5.75;2.22;;;3.60;99.90;;;;;;5059910;28;20044;-47
2023/01/16 10:16:15;;;;;;;4.47;2.10;;;3.90;99.90;;;;;;5059934;28;20075;-49
2023/01/16 10:19:06;;;;;;;4.00;2.20;;;3.70;99.90;;;;;;5060384;28;20043;-50
2023/01/16 10:21:51;;;;;;;6.07;2.67;;;3.10;99.90;;;;;;5027254;28;20118;-47
2023/01/16 10:24:52;;;;;;;4.50;2.47;;;4.10;99.90;;;;;;5061191;28;20094;-47
2023/01/16 10:27:57;;;;;;;4.68;2.72;;;3.90;99.90;;;;;;5061418;28;20033;-53
2023/01/16 10:30:35;;;;;;;4.85;2.65;;;3.40;99.90;;;;;;5061663;28;20035;-47
2023/01/16 10:33:26;;;;;;;5.35;2.83;;;3.40;99.90;;;;;;5059694;28;20040;-48
2023/01/16 10:35:54;;;;;;;5.32;2.83;;;3.60;99.90;;;;;;5058737;28;20032;-51
2023/01/16 10:38:42;;;;;;;6.93;2.60;;;3.90;99.90;;;;;;5060765;28;20131;-49
2023/01/16 10:49:52;;;;;;;7.03;3.33;;;3.80;99.90;;;;;;5058883;28;20095;-50
2023/01/16 10:52:18;;;;;;;7.30;3.92;;;3.40;99.90;;;;;;5060556;28;20072;-52
2023/01/16 10:54:43;;;;;;;7.05;4.00;;;3.80;99.90;;;;;;5060460;28;20032;-48
2023/01/16 10:57:15;;;;;;;6.20;3.70;;;4.00;99.90;;;;;;5062452;28;20510;-50
2023/01/16 10:59:43;;;;;;;8.57;3.72;;;3.90;99.90;;;;;;5061279;28;20041;-49
2023/01/16 11:02:25;;;;;;;6.75;3.50;;;3.60;99.90;;;;;;5060599;28;20119;-47
2023/01/16 11:04:52;;;;;;;7.18;4.15;;;3.80;99.90;;;;;;5058555;28;20041;-48
2023/01/16 11:07:22;;;;;;;7.68;4.20;;;4.10;99.90;;;;;;5059874;28;20094;-50
2023/01/16 11:09:48;;;;;;;9.75;3.92;;;4.00;99.90;;;;;;5060937;28;20055;-51
2023/01/16 11:18:29;;;;;;;10.43;3.95;;;3.60;99.90;;;;;;5075973;28;20392;-50
2023/01/16 11:21:00;;;;;;;7.93;3.70;;;3.60;99.90;;;;;;5058572;28;20605;-48
2023/01/16 11:23:35;;;;;;;7.32;3.70;;;3.80;99.90;;;;;;5061744;28;20036;-50
2023/01/16 11:26:02;;;;;;;7.68;3.92;;;3.90;99.90;;;;;;5059322;28;20040;-47
2023/01/16 11:28:30;;;;;;;9.20;4.15;;;3.70;99.90;;;;;;5060767;28;20481;-49
2023/01/16 11:31:30;;;;;;;6.88;4.18;;;3.70;99.90;;;;;;5060439;28;20082;-52
2023/01/16 11:34:01;;;;;;;8.35;4.07;;;4.10;99.90;;;;;;5059224;28;20082;-51
2023/01/16 11:36:31;;;;;;;7.00;3.60;;;4.10;99.90;;;;;;5060274;28;20036;-52
2023/01/16 11:38:57;;;;;;;7.78;4.25;;;4.30;99.90;;;;;;5058537;28;20041;-50
2023/01/16 11:41:36;;;;;;;7.22;4.03;;;3.80;99.90;;;;;;5058138;28;20107;-48
2023/01/16 11:47:17;;;;;;;10.00;4.50;;;3.90;99.90;;;;;;5058681;28;20129;-49
2023/01/16 11:49:48;;;;;;;8.13;4.22;;;4.20;99.90;;;;;;5061226;28;20048;-46
2023/01/16 11:52:29;;;;;;;8.90;4.22;;;4.00;99.90;;;;;;5061162;28;20143;-49
2023/01/16 11:55:06;;;;;;;6.78;4.20;;;4.10;99.90;;;;;;5058606;28;20444;-49
2023/01/16 11:57:56;;;;;;;8.45;4.35;;;4.10;99.90;;;;;;5058140;28;20040;-50
2023/01/16 12:00:53;;;;;;;8.85;4.28;;;4.00;99.90;;;;;;5059567;28;22829;-51
2023/01/16 12:03:51;;;;;;;8.15;4.20;;;4.00;99.90;;;;;;5059314;28;20046;-48
2023/01/16 12:06:45;;;;;;;11.55;4.97;;;4.20;99.90;;;;;;5031876;28;20717;-49
2023/01/16 12:09:14;;;;;;;8.00;5.03;;;4.20;99.90;;;;;;5060815;28;20060;-48
2023/01/16 12:15:45;;;;;;;8.77;4.70;;;4.00;99.90;;;;;;5058312;28;20126;-53
2023/01/16 12:18:44;;;;;;;10.80;4.80;;;4.50;99.90;;;;;;5048793;28;20045;-48
2023/01/16 12:21:33;;;;;;;6.55;4.15;;;4.40;99.90;;;;;;5060957;28;20439;-51
2023/01/16 12:24:19;;;;;;;7.53;4.20;;;4.60;99.90;;;;;;5060832;28;20399;-49
2023/01/16 12:26:57;;;;;;;9.35;5.40;;;4.60;99.90;;;;;;5060812;28;20563;-50
2023/01/16 12:29:38;;;;;;;8.85;4.90;;;4.60;99.90;;;;;;5060183;28;20074;-53
2023/01/16 12:32:41;;;;;;;6.78;4.60;;;4.10;99.90;;;;;;5060447;28;20414;-48
2023/01/16 12:35:23;;;;;;;8.35;4.63;;;4.10;99.90;;;;;;5060011;28;20044;-52
2023/01/16 12:38:10;;;;;;;8.77;4.93;;;4.30;99.90;;;;;;5060312;28;20048;-50
2023/01/16 12:43:18;;;;;;;8.48;4.28;;;4.40;99.90;;;;;;5060661;28;20041;-52
2023/01/16 12:43:53;;;;;;;8.27;4.65;;;4.20;99.90;;;;;;5058980;28;20115;-51
2023/01/16 12:46:48;;;;;;;6.53;4.28;;;4.20;99.90;;;;;;5058852;28;20040;-51
2023/01/16 12:49:29;;;;;;;10.85;4.70;;;4.70;99.90;;;;;;5051969;28;20048;-48
2023/01/16 12:52:14;;;;;;;9.18;4.55;;;4.60;99.90;;;;;;5057093;28;20040;-50
2023/01/16 12:54:57;;;;;;;10.63;4.85;;;4.50;99.90;;;;;;5061090;28;20047;-48
2023/01/16 12:57:44;;;;;;;7.38;4.88;;;4.70;99.90;;;;;;5059811;28;20032;-47
2023/01/16 13:00:20;;;;;;;8.70;4.38;;;4.50;99.90;;;;;;5057137;28;20039;-48
2023/01/16 13:03:10;;;;;;;7.60;4.28;;;4.80;99.90;;;;;;5062942;28;20116;-49
2023/01/16 13:05:39;;;;;;;5.75;3.53;;;4.60;99.90;;;;;;5067732;28;20043;-49
2023/01/16 13:08:33;;;;;;;8.30;4.30;;;4.30;99.90;;;;;;5067577;28;20045;-48
2023/01/16 13:13:59;;;;;;;7.10;3.47;;;4.80;99.90;;;;;;5066643;28;20075;-46
2023/01/16 13:16:39;;;;;;;6.07;3.40;;;4.80;99.90;;;;;;5068202;28;20123;-47
2023/01/16 13:19:24;;;;;;;5.60;3.15;;;4.30;99.90;;;;;;5067876;28;20036;-48
2023/01/16 13:22:07;;;;;;;6.45;3.30;;;4.90;99.90;;;;;;5067146;28;20044;-47
2023/01/16 13:24:55;;;;;;;5.32;3.00;;;4.40;99.90;;;;;;5069384;28;20075;-47
2023/01/16 13:27:31;;;;;;;5.88;3.22;;;4.70;99.90;;;;;;5069945;28;20357;-47
2023/01/16 13:30:03;;;;;;;4.72;2.80;;;4.90;99.90;;;;;;5069768;28;20047;-46
2023/01/16 13:32:38;;;;;;;6.25;2.95;;;4.40;99.90;;;;;;5069794;28;20040;-47
2023/01/16 13:35:07;;;;;;;6.45;3.00;;;4.40;99.90;;;;;;5069447;28;20041;-47
2023/01/16 13:38:01;;;;;;;5.85;2.75;;;4.70;99.90;;;;;;5069534;28;20089;-47
2023/01/16 13:40:45;;;;;;;6.40;3.27;;;4.60;99.90;;;;;;5069863;28;20047;-48
2023/01/16 13:46:05;;;;;;;5.10;2.35;;;5.20;99.90;;;;;;5073334;28;20384;-49
2023/01/16 13:48:34;;;;;;;7.30;2.67;;;4.80;99.90;;;;;;5071893;28;20063;-47
2023/01/16 13:51:03;;;;;;;5.90;2.70;;;4.60;99.90;;;;;;5073071;28;20101;-47
2023/01/16 13:53:30;;;;;;;5.93;2.60;;;4.60;99.90;;;;;;5071403;28;20040;-47
2023/01/16 13:56:23;;;;;;;6.45;2.50;;;5.00;99.90;;;;;;5072928;28;20067;-46
2023/01/16 13:59:08;;;;;;;5.43;2.42;;;4.80;99.90;;;;;;5069533;28;20048;-48
2023/01/16 14:01:37;;;;;;;7.53;2.53;;;4.60;99.90;;;;;;5072546;28;20071;-47
2023/01/16 14:04:24;;;;;;;6.45;2.42;;;5.00;99.90;;;;;;5072812;28;20373;-47
2023/01/16 14:09:04;;;;;;;4.45;2.15;;;5.00;99.90;;;;;;5072438;28;20048;-48
2023/01/16 14:10:04;;;;;;;7.47;2.63;;;4.60;99.90;;;;;;5072182;28;20055;-47
2023/01/16 14:12:53;;;;;;;7.90;2.63;;;5.00;99.90;;;;;;5072719;28;20032;-46
2023/01/16 14:18:17;;;;;;;6.47;2.80;;;5.90;99.90;;;;;;5072592;28;20119;-46
2023/01/16 14:20:49;;;;;;;5.60;2.78;;;4.90;99.90;;;;;;5072246;28;20048;-46